Time;durP1;ratioP1;P1;durP2;ratioP2;P2;SDS_P1;SDS_P2;PMS_P1;PMS_P2;Temp;Humidity;BMP_temperature;BMP_pressure;BME280_temperature;BME280_humidity;BME280_pressure;Samples;Min_cycle;Max_cycle;Signal;HPM_P1;HPM_P2
2023/03/01 00:00:51;;;;;;;18.70;11.90;;;;;;;;;;5077305;28;20094;-64
2023/03/01 00:03:17;;;;;;;18.38;10.60;;;;;;;;;;5087177;28;20059;-64
2023/03/01 00:05:45;;;;;;;19.27;12.02;;;;;;;;;;5064587;28;20043;-64
2023/03/01 00:08:11;;;;;;;17.90;11.52;;;;;;;;;;5064676;28;20075;-64
2023/03/01 00:10:37;;;;;;;16.52;11.35;;;;;;;;;;5078881;28;20091;-64
2023/03/01 00:13:05;;;;;;;18.48;12.13;;;;;;;;;;5082276;28;20059;-64
2023/03/01 00:15:31;;;;;;;14.75;10.70;;;;;;;;;;5085737;28;20055;-64
2023/03/01 00:17:58;;;;;;;15.40;10.23;;;;;;;;;;5087189;28;20050;-64
2023/03/01 00:20:24;;;;;;;17.73;10.27;;;;;;;;;;5085448;28;20131;-64
2023/03/01 00:22:50;;;;;;;17.08;10.85;;;;;;;;;;5086395;28;20490;-63
2023/03/01 00:25:16;;;;;;;16.92;11.13;;;;;;;;;;5087849;28;20479;-64
2023/03/01 00:27:42;;;;;;;13.55;9.73;;;;;;;;;;5089274;28;20043;-64
2023/03/01 00:30:09;;;;;;;16.05;11.35;;;;;;;;;;5088094;28;20465;-63
2023/03/01 00:32:35;;;;;;;14.68;10.07;;;;;;;;;;5091097;28;20039;-64
2023/03/01 00:35:01;;;;;;;16.92;10.73;;;;;;;;;;5077231;28;20123;-64
2023/03/01 00:37:27;;;;;;;15.82;11.73;;;;;;;;;;5091600;28;20497;-64
2023/03/01 00:39:53;;;;;;;17.58;11.10;;;;;;;;;;5082674;28;20120;-64
2023/03/01 00:42:19;;;;;;;17.20;11.00;;;;;;;;;;5089088;28;20043;-64
2023/03/01 00:44:46;;;;;;;17.05;10.38;;;;;;;;;;5092220;28;20425;-63
2023/03/01 00:47:12;;;;;;;15.35;9.77;;;;;;;;;;5090804;28;20347;-64
2023/03/01 00:49:38;;;;;;;13.30;10.02;;;;;;;;;;5093738;28;20036;-64
2023/03/01 00:52:04;;;;;;;17.13;11.85;;;;;;;;;;5086317;28;20043;-64
2023/03/01 00:54:30;;;;;;;16.65;10.95;;;;;;;;;;5067466;28;20051;-63
2023/03/01 00:56:56;;;;;;;14.30;10.68;;;;;;;;;;5088346;28;20044;-64
2023/03/01 00:59:22;;;;;;;18.05;11.70;;;;;;;;;;5068972;28;20489;-64
2023/03/01 01:01:49;;;;;;;17.63;11.32;;;;;;;;;;5088918;28;20032;-64
2023/03/01 01:04:15;;;;;;;19.00;11.98;;;;;;;;;;5096941;28;20035;-64
2023/03/01 01:06:42;;;;;;;17.70;11.43;;;;;;;;;;5089504;28;20436;-64
2023/03/01 01:09:16;;;;;;;16.42;11.63;;;;;;;;;;5088238;28;20070;-64
2023/03/01 01:11:43;;;;;;;15.57;10.95;;;;;;;;;;5090503;28;20044;-64
2023/03/01 01:14:09;;;;;;;17.23;12.10;;;;;;;;;;5092762;28;20040;-64
2023/03/01 01:16:35;;;;;;;21.00;13.68;;;;;;;;;;5090177;28;20036;-64
2023/03/01 01:19:01;;;;;;;15.75;10.35;;;;;;;;;;5089564;28;20047;-63
2023/03/01 01:21:28;;;;;;;17.20;10.80;;;;;;;;;;5089296;28;20055;-64
2023/03/01 01:23:54;;;;;;;21.00;11.27;;;;;;;;;;5090485;28;20059;-63
2023/03/01 01:26:22;;;;;;;18.40;12.13;;;;;;;;;;5087589;28;21941;-63
2023/03/01 01:28:48;;;;;;;18.88;11.05;;;;;;;;;;5084639;28;20028;-64
2023/03/01 01:31:15;;;;;;;16.48;10.02;;;;;;;;;;5091954;28;20393;-64
2023/03/01 01:33:41;;;;;;;21.42;12.20;;;;;;;;;;5093889;28;20043;-64
2023/03/01 01:36:08;;;;;;;15.60;10.98;;;;;;;;;;5085916;28;20032;-64
2023/03/01 01:38:34;;;;;;;18.55;11.52;;;;;;;;;;5088926;28;20043;-64
2023/03/01 01:41:01;;;;;;;17.73;11.18;;;;;;;;;;5089068;28;20600;-64
2023/03/01 01:43:28;;;;;;;21.50;12.27;;;;;;;;;;5093095;28;20116;-64
2023/03/01 01:46:00;;;;;;;18.83;10.70;;;;;;;;;;5086241;28;20055;-64
2023/03/01 01:48:40;;;;;;;16.90;10.70;;;;;;;;;;5070380;28;20498;-64
2023/03/01 01:51:07;;;;;;;18.33;10.80;;;;;;;;;;5093354;28;20108;-64
2023/03/01 01:53:33;;;;;;;17.60;12.07;;;;;;;;;;5087140;28;20769;-64
2023/03/01 01:56:01;;;;;;;15.18;10.25;;;;;;;;;;5066028;28;20044;-64
2023/03/01 01:58:30;;;;;;;16.05;8.18;;;;;;;;;;5089822;28;20278;-64
2023/03/01 02:00:56;;;;;;;13.70;7.05;;;;;;;;;;5088037;28;20451;-64
2023/03/01 02:03:28;;;;;;;10.63;6.68;;;;;;;;;;5089722;28;20493;-64
2023/03/01 02:06:01;;;;;;;11.57;6.72;;;;;;;;;;5087622;28;20246;-64
2023/03/01 02:08:30;;;;;;;20.70;8.35;;;;;;;;;;5051189;28;20072;-63
2023/03/01 02:10:57;;;;;;;21.85;7.72;;;;;;;;;;5069866;28;20148;-64
2023/03/01 02:13:23;;;;;;;38.42;11.15;;;;;;;;;;5091258;28;20051;-63
2023/03/01 02:15:49;;;;;;;16.20;8.50;;;;;;;;;;5084963;28;20375;-63
2023/03/01 02:18:18;;;;;;;22.90;8.40;;;;;;;;;;5066078;28;20048;-63
2023/03/01 02:20:48;;;;;;;73.35;14.75;;;;;;;;;;5087832;28;20040;-64
2023/03/01 02:23:15;;;;;;;79.30;16.48;;;;;;;;;;5087646;28;20063;-63
2023/03/01 02:25:53;;;;;;;115.35;17.48;;;;;;;;;;5091120;28;20451;-63
2023/03/01 02:28:32;;;;;;;70.50;14.75;;;;;;;;;;5088150;28;20499;-63
2023/03/01 02:33:44;;;;;;;69.18;13.18;;;;;;;;;;5088803;28;20445;-64
2023/03/01 02:36:13;;;;;;;76.32;13.10;;;;;;;;;;5088054;28;20064;-64
2023/03/01 02:38:40;;;;;;;95.13;15.35;;;;;;;;;;5081370;28;20476;-64
2023/03/01 02:41:07;;;;;;;98.72;14.00;;;;;;;;;;5087055;28;20036;-64
2023/03/01 02:43:33;;;;;;;150.57;19.80;;;;;;;;;;5084603;28;20032;-64
2023/03/01 02:46:03;;;;;;;122.78;18.88;;;;;;;;;;5096655;28;20054;-64
2023/03/01 02:48:39;;;;;;;80.63;13.93;;;;;;;;;;5092214;28;20047;-63
2023/03/01 02:51:06;;;;;;;75.70;10.95;;;;;;;;;;5088701;28;20394;-64
2023/03/01 02:53:50;;;;;;;56.15;12.20;;;;;;;;;;5086493;28;20044;-64
2023/03/01 02:56:17;;;;;;;28.35;9.55;;;;;;;;;;5088133;28;20093;-63
2023/03/01 02:58:51;;;;;;;49.63;11.45;;;;;;;;;;5093060;28;20569;-64
2023/03/01 03:01:17;;;;;;;13.43;5.78;;;;;;;;;;5087107;28;20044;-66
2023/03/01 03:03:43;;;;;;;9.90;6.22;;;;;;;;;;5093060;28;20517;-64
2023/03/01 03:06:09;;;;;;;18.48;7.70;;;;;;;;;;5092178;28;20036;-64
2023/03/01 03:08:35;;;;;;;27.00;7.13;;;;;;;;;;5088663;28;20044;-64
2023/03/01 03:11:01;;;;;;;7.60;5.28;;;;;;;;;;5093744;28;20059;-64
2023/03/01 03:13:28;;;;;;;7.57;5.32;;;;;;;;;;5086216;28;20464;-63
2023/03/01 03:15:57;;;;;;;34.70;7.82;;;;;;;;;;5085368;28;20513;-64
2023/03/01 03:18:27;;;;;;;60.28;13.70;;;;;;;;;;5093723;28;20051;-64
2023/03/01 03:20:54;;;;;;;30.20;8.00;;;;;;;;;;5084016;28;20040;-64
2023/03/01 03:23:21;;;;;;;14.85;6.72;;;;;;;;;;5083184;28;20035;-64
2023/03/01 03:25:51;;;;;;;9.13;5.88;;;;;;;;;;5069581;28;20114;-64
2023/03/01 03:28:17;;;;;;;12.93;6.50;;;;;;;;;;5088391;28;20298;-64
2023/03/01 03:30:44;;;;;;;10.73;5.45;;;;;;;;;;5088623;28;20046;-64
2023/03/01 03:33:12;;;;;;;17.58;6.20;;;;;;;;;;5085071;28;20042;-64
2023/03/01 03:35:45;;;;;;;13.50;6.88;;;;;;;;;;5067797;28;20127;-63
2023/03/01 03:38:16;;;;;;;37.97;10.63;;;;;;;;;;5085332;28;20535;-64
2023/03/01 03:40:47;;;;;;;57.72;11.77;;;;;;;;;;5088451;28;20036;-64
2023/03/01 03:43:15;;;;;;;30.10;9.07;;;;;;;;;;5084310;28;20062;-65
2023/03/01 03:45:41;;;;;;;65.45;10.25;;;;;;;;;;5084332;28;20040;-65
2023/03/01 03:48:09;;;;;;;15.20;6.35;;;;;;;;;;5090550;28;20036;-65
2023/03/01 03:50:35;;;;;;;26.20;8.40;;;;;;;;;;5086477;28;20036;-65
2023/03/01 03:53:02;;;;;;;26.05;7.65;;;;;;;;;;5083264;28;20079;-65
2023/03/01 03:55:30;;;;;;;45.20;7.32;;;;;;;;;;5088364;28;20055;-65
2023/03/01 03:57:58;;;;;;;11.10;6.30;;;;;;;;;;5083727;28;20044;-66
2023/03/01 04:00:24;;;;;;;10.10;5.78;;;;;;;;;;5090746;28;20035;-65
2023/03/01 04:02:51;;;;;;;10.05;6.07;;;;;;;;;;5078712;28;20036;-65
2023/03/01 04:05:18;;;;;;;11.70;7.40;;;;;;;;;;5089424;28;20072;-65
2023/03/01 04:07:45;;;;;;;8.32;6.18;;;;;;;;;;5091818;28;20042;-65
2023/03/01 04:10:16;;;;;;;10.32;6.45;;;;;;;;;;5076364;28;20048;-65
2023/03/01 04:12:43;;;;;;;9.52;6.28;;;;;;;;;;5087294;28;20052;-65
2023/03/01 04:15:13;;;;;;;9.70;6.75;;;;;;;;;;5090792;28;20036;-65
2023/03/01 04:17:40;;;;;;;9.93;6.78;;;;;;;;;;5088231;28;20435;-65
2023/03/01 04:20:06;;;;;;;11.32;7.30;;;;;;;;;;5090668;28;20051;-65
2023/03/01 04:22:33;;;;;;;11.95;7.70;;;;;;;;;;5088089;28;20142;-65
2023/03/01 04:25:05;;;;;;;13.20;6.60;;;;;;;;;;5087050;28;20048;-65
2023/03/01 04:27:34;;;;;;;11.80;6.82;;;;;;;;;;5084346;28;20115;-65
2023/03/01 04:30:01;;;;;;;9.43;5.78;;;;;;;;;;5086536;28;20076;-65
2023/03/01 04:32:27;;;;;;;8.82;5.63;;;;;;;;;;5063224;28;20115;-65
2023/03/01 04:34:53;;;;;;;8.18;6.22;;;;;;;;;;5091994;28;20067;-65
2023/03/01 04:37:19;;;;;;;9.45;6.30;;;;;;;;;;5064439;28;20520;-65
2023/03/01 04:39:45;;;;;;;10.15;6.40;;;;;;;;;;5086616;28;20036;-65
2023/03/01 04:42:12;;;;;;;8.63;5.45;;;;;;;;;;5086784;28;20039;-65
2023/03/01 04:44:38;;;;;;;8.70;5.45;;;;;;;;;;5083131;28;20405;-65
2023/03/01 04:47:04;;;;;;;9.70;5.85;;;;;;;;;;5095399;28;20043;-65
2023/03/01 04:49:30;;;;;;;5.82;4.93;;;;;;;;;;5087370;28;20397;-65
2023/03/01 04:52:01;;;;;;;8.95;5.60;;;;;;;;;;5084460;28;20055;-65
2023/03/01 04:54:34;;;;;;;9.10;6.18;;;;;;;;;;5086991;28;20039;-66
2023/03/01 04:57:01;;;;;;;8.63;5.63;;;;;;;;;;5086893;28;20032;-65
2023/03/01 04:59:27;;;;;;;7.82;5.15;;;;;;;;;;5082698;28;20036;-65
2023/03/01 05:01:55;;;;;;;8.38;5.72;;;;;;;;;;5085236;28;20044;-65
2023/03/01 05:04:22;;;;;;;6.57;5.22;;;;;;;;;;5087487;28;20044;-65
2023/03/01 05:06:48;;;;;;;9.70;6.05;;;;;;;;;;5085770;28;20040;-65
2023/03/01 05:09:14;;;;;;;11.65;6.60;;;;;;;;;;5090033;28;20048;-64
2023/03/01 05:11:40;;;;;;;7.47;5.47;;;;;;;;;;5080776;28;20047;-65
2023/03/01 05:14:07;;;;;;;8.10;5.60;;;;;;;;;;5065720;28;20039;-65
2023/03/01 05:16:33;;;;;;;7.80;5.70;;;;;;;;;;5071957;28;20363;-65
2023/03/01 05:19:00;;;;;;;9.52;5.95;;;;;;;;;;5092327;28;20150;-63
2023/03/01 05:21:26;;;;;;;9.90;6.43;;;;;;;;;;5089643;28;20036;-64
2023/03/01 05:23:52;;;;;;;7.68;5.47;;;;;;;;;;5086721;28;20089;-63
2023/03/01 05:26:19;;;;;;;9.10;6.10;;;;;;;;;;5091981;28;20035;-64
2023/03/01 05:28:45;;;;;;;7.65;5.30;;;;;;;;;;5083829;28;20032;-63
2023/03/01 05:31:11;;;;;;;12.27;5.88;;;;;;;;;;5068454;28;20429;-64
2023/03/01 05:33:38;;;;;;;8.57;4.93;;;;;;;;;;5085528;28;20047;-64
2023/03/01 05:36:05;;;;;;;8.48;5.45;;;;;;;;;;5086268;28;20119;-65
2023/03/01 05:38:31;;;;;;;8.80;5.82;;;;;;;;;;5072983;28;20040;-64
2023/03/01 05:40:57;;;;;;;6.07;4.55;;;;;;;;;;5089526;28;20039;-65
2023/03/01 05:43:23;;;;;;;7.25;5.18;;;;;;;;;;5086164;28;20035;-64
2023/03/01 05:45:49;;;;;;;9.57;5.47;;;;;;;;;;5088770;28;20097;-64
2023/03/01 05:48:15;;;;;;;7.68;5.25;;;;;;;;;;5089916;28;20086;-64
2023/03/01 05:50:43;;;;;;;7.38;5.05;;;;;;;;;;5080508;28;20036;-64
2023/03/01 05:53:22;;;;;;;11.77;5.95;;;;;;;;;;5087386;28;20542;-64
2023/03/01 05:55:49;;;;;;;7.45;4.57;;;;;;;;;;5087469;28;20042;-64
2023/03/01 05:58:17;;;;;;;8.60;5.60;;;;;;;;;;5067705;28;20105;-64
2023/03/01 06:00:44;;;;;;;11.65;6.55;;;;;;;;;;5085788;28;20355;-64
2023/03/01 06:03:14;;;;;;;7.15;5.60;;;;;;;;;;5084402;28;20036;-64
2023/03/01 06:05:40;;;;;;;9.70;6.43;;;;;;;;;;5084216;28;20047;-64
2023/03/01 06:08:07;;;;;;;8.02;4.55;;;;;;;;;;5085480;28;20094;-64
2023/03/01 06:10:33;;;;;;;7.07;6.13;;;;;;;;;;5087255;28;20062;-64
2023/03/01 06:12:59;;;;;;;12.35;6.15;;;;;;;;;;5065952;28;20146;-64
2023/03/01 06:15:25;;;;;;;8.98;5.68;;;;;;;;;;5086672;28;20071;-64
2023/03/01 06:17:52;;;;;;;8.25;6.00;;;;;;;;;;5086203;28;20028;-64
2023/03/01 06:20:20;;;;;;;9.77;6.22;;;;;;;;;;5089946;28;20040;-64
2023/03/01 06:22:46;;;;;;;14.32;6.47;;;;;;;;;;5089157;28;20032;-64
2023/03/01 06:25:13;;;;;;;14.52;7.50;;;;;;;;;;5089797;28;20039;-64
2023/03/01 06:27:40;;;;;;;12.60;7.10;;;;;;;;;;5089412;28;20042;-64
2023/03/01 06:30:07;;;;;;;8.32;5.75;;;;;;;;;;5085741;28;20090;-63
2023/03/01 06:32:34;;;;;;;10.43;5.45;;;;;;;;;;5085170;28;20412;-64
2023/03/01 06:35:00;;;;;;;7.53;5.97;;;;;;;;;;5083487;28;20100;-64
2023/03/01 06:37:26;;;;;;;11.93;6.95;;;;;;;;;;5087410;28;20044;-64
2023/03/01 06:39:52;;;;;;;9.02;6.78;;;;;;;;;;5085699;28;20111;-64
2023/03/01 06:42:18;;;;;;;9.40;6.40;;;;;;;;;;5086925;28;20458;-64
2023/03/01 06:44:45;;;;;;;10.82;6.55;;;;;;;;;;5081028;28;20090;-64
2023/03/01 06:47:11;;;;;;;9.68;7.03;;;;;;;;;;5090514;28;20036;-64
2023/03/01 06:49:38;;;;;;;11.70;7.55;;;;;;;;;;5088686;28;20040;-64
2023/03/01 06:52:04;;;;;;;12.43;8.32;;;;;;;;;;5086741;28;20554;-64
2023/03/01 06:54:30;;;;;;;12.65;8.10;;;;;;;;;;5084368;28;20102;-64
2023/03/01 06:56:56;;;;;;;14.98;8.40;;;;;;;;;;5084030;28;20063;-64
2023/03/01 06:59:22;;;;;;;12.07;8.18;;;;;;;;;;5081795;28;20044;-64
2023/03/01 07:01:48;;;;;;;15.23;8.73;;;;;;;;;;5082317;28;20039;-64
2023/03/01 07:04:14;;;;;;;11.55;7.97;;;;;;;;;;5083016;28;20135;-64
2023/03/01 07:06:41;;;;;;;13.57;8.38;;;;;;;;;;5082025;28;20032;-64
2023/03/01 07:09:07;;;;;;;16.17;8.93;;;;;;;;;;5083222;28;20040;-64
2023/03/01 07:11:33;;;;;;;11.45;8.93;;;;;;;;;;5066801;28;20059;-63
2023/03/01 07:13:59;;;;;;;13.93;9.20;;;;;;;;;;5078965;28;20429;-64
2023/03/01 07:16:26;;;;;;;10.32;7.85;;;;;;;;;;5064661;28;20052;-63
2023/03/01 07:18:52;;;;;;;12.75;7.53;;;;;;;;;;5085031;28;20115;-64
2023/03/01 07:21:18;;;;;;;18.20;8.95;;;;;;;;;;5083631;28;20059;-64
2023/03/01 07:23:47;;;;;;;14.52;9.32;;;;;;;;;;5047957;28;20047;-64
2023/03/01 07:26:14;;;;;;;12.88;8.23;;;;;;;;;;5047434;28;20044;-64
2023/03/01 07:28:40;;;;;;;13.07;9.00;;;;;;;;;;5080810;28;20071;-64
2023/03/01 07:31:06;;;;;;;10.93;7.75;;;;;;;;;;5063895;28;20087;-63
2023/03/01 07:33:33;;;;;;;9.93;7.18;;;;;;;;;;5084182;28;20096;-64
2023/03/01 07:36:04;;;;;;;11.15;9.02;;;;;;;;;;5084515;28;20167;-64
2023/03/01 07:38:30;;;;;;;11.95;7.10;;;;;;;;;;5081449;28;20134;-64
2023/03/01 07:41:03;;;;;;;11.52;7.38;;;;;;;;;;5083055;28;20455;-64
2023/03/01 07:43:30;;;;;;;10.63;7.47;;;;;;;;;;5080241;28;22432;-64
2023/03/01 07:46:00;;;;;;;11.30;7.82;;;;;;;;;;5079967;28;20091;-64
2023/03/01 07:48:26;;;;;;;11.73;8.10;;;;;;;;;;5083444;28;20406;-64
2023/03/01 07:50:52;;;;;;;11.48;8.27;;;;;;;;;;5084507;28;20040;-64
2023/03/01 07:53:19;;;;;;;13.05;9.50;;;;;;;;;;5086771;28;20510;-64
2023/03/01 07:55:45;;;;;;;12.35;8.27;;;;;;;;;;5085701;28;20038;-64
2023/03/01 07:58:11;;;;;;;13.32;9.45;;;;;;;;;;5064102;28;20047;-64
2023/03/01 08:00:37;;;;;;;9.40;7.78;;;;;;;;;;5084408;28;20031;-63
2023/03/01 08:03:03;;;;;;;12.73;8.43;;;;;;;;;;5082106;28;20180;-63
2023/03/01 08:05:29;;;;;;;11.80;8.60;;;;;;;;;;5082722;28;20069;-64
2023/03/01 08:07:55;;;;;;;16.45;9.00;;;;;;;;;;5082640;28;20067;-64
2023/03/01 08:10:22;;;;;;;12.20;8.60;;;;;;;;;;5082488;28;20134;-64
2023/03/01 08:12:48;;;;;;;12.63;8.60;;;;;;;;;;5082331;28;20043;-64
2023/03/01 08:15:14;;;;;;;19.85;9.07;;;;;;;;;;5078945;28;20138;-64
2023/03/01 08:17:40;;;;;;;16.98;9.55;;;;;;;;;;5083380;28;20407;-66
2023/03/01 08:20:06;;;;;;;11.63;8.13;;;;;;;;;;5077435;28;20139;-64
2023/03/01 08:22:33;;;;;;;11.10;8.05;;;;;;;;;;5083196;28;20028;-63
2023/03/01 08:24:59;;;;;;;11.60;8.88;;;;;;;;;;5082288;28;20137;-64
2023/03/01 08:27:25;;;;;;;13.43;9.07;;;;;;;;;;5084118;28;20574;-64
2023/03/01 08:29:51;;;;;;;15.85;9.07;;;;;;;;;;5074838;28;20036;-64
2023/03/01 08:32:17;;;;;;;10.98;8.15;;;;;;;;;;5085503;28;20044;-64
2023/03/01 08:34:46;;;;;;;12.38;8.70;;;;;;;;;;5082770;28;20178;-64
2023/03/01 08:37:12;;;;;;;10.20;8.32;;;;;;;;;;5082360;28;20075;-64
2023/03/01 08:39:38;;;;;;;10.98;8.07;;;;;;;;;;5058496;28;20043;-64
2023/03/01 08:42:05;;;;;;;11.25;8.70;;;;;;;;;;5063550;28;20047;-63
2023/03/01 08:44:31;;;;;;;11.40;8.30;;;;;;;;;;5064434;28;20040;-64
2023/03/01 08:46:57;;;;;;;15.75;9.43;;;;;;;;;;5082652;28;20047;-64
2023/03/01 08:49:24;;;;;;;16.30;8.98;;;;;;;;;;5079602;28;20051;-64
2023/03/01 08:51:50;;;;;;;13.18;9.13;;;;;;;;;;5086612;28;20457;-64
2023/03/01 08:54:17;;;;;;;14.98;9.57;;;;;;;;;;5089183;28;20040;-64
2023/03/01 08:56:44;;;;;;;13.20;9.70;;;;;;;;;;5086694;28;20448;-64
2023/03/01 08:59:11;;;;;;;18.15;10.45;;;;;;;;;;5083975;28;20040;-63
2023/03/01 09:01:37;;;;;;;12.55;9.48;;;;;;;;;;5087615;28;20043;-64
2023/03/01 09:04:04;;;;;;;19.95;9.20;;;;;;;;;;5074904;28;20043;-64
2023/03/01 09:06:33;;;;;;;12.90;10.05;;;;;;;;;;5084989;28;20032;-64
2023/03/01 09:09:00;;;;;;;13.82;10.07;;;;;;;;;;5087269;28;20044;-64
2023/03/01 09:11:26;;;;;;;14.52;10.50;;;;;;;;;;5087307;28;20425;-64
2023/03/01 09:13:53;;;;;;;15.35;10.32;;;;;;;;;;5087509;28;20431;-64
2023/03/01 09:16:20;;;;;;;17.60;9.95;;;;;;;;;;5087906;28;20173;-65
2023/03/01 09:18:49;;;;;;;15.38;11.02;;;;;;;;;;5082766;28;20411;-65
2023/03/01 09:21:16;;;;;;;19.27;11.65;;;;;;;;;;5085613;28;20044;-65
2023/03/01 09:23:46;;;;;;;14.27;10.77;;;;;;;;;;5068516;28;20114;-64
2023/03/01 09:26:19;;;;;;;16.85;11.93;;;;;;;;;;5087070;28;20078;-65
2023/03/01 09:28:46;;;;;;;19.50;11.70;;;;;;;;;;5083428;28;20425;-65
2023/03/01 09:31:13;;;;;;;17.67;11.55;;;;;;;;;;5082150;28;20098;-65
2023/03/01 09:33:39;;;;;;;17.83;12.15;;;;;;;;;;5058747;28;20502;-65
2023/03/01 09:36:07;;;;;;;18.40;13.38;;;;;;;;;;5091594;28;20139;-65
2023/03/01 09:38:34;;;;;;;17.48;11.77;;;;;;;;;;5080415;28;20126;-65
2023/03/01 09:41:01;;;;;;;16.65;12.32;;;;;;;;;;5085328;28;20065;-65
2023/03/01 09:43:32;;;;;;;17.30;12.10;;;;;;;;;;5091665;28;20072;-65
2023/03/01 09:46:00;;;;;;;20.83;12.55;;;;;;;;;;5087505;28;20727;-65
2023/03/01 09:48:27;;;;;;;18.75;12.73;;;;;;;;;;5087350;28;21552;-65
2023/03/01 09:50:54;;;;;;;20.33;13.05;;;;;;;;;;5086539;28;20133;-65
2023/03/01 09:53:21;;;;;;;16.85;12.38;;;;;;;;;;5090240;28;20040;-65
2023/03/01 09:55:54;;;;;;;21.13;12.45;;;5.50;99.90;;;;;;5064293;28;20123;-65
2023/03/01 09:58:20;;;;;;;19.38;12.68;;;;;;;;;;5083863;28;20101;-65
2023/03/01 10:00:49;;;;;;;18.48;11.73;;;;;;;;;;5088938;28;20042;-65
2023/03/01 10:03:25;;;;;;;16.27;12.38;;;;;;;;;;5085264;28;20142;-65
2023/03/01 10:06:19;;;;;;;16.10;12.07;;;2.90;99.90;;;;;;5080544;28;20040;-65
2023/03/01 10:08:56;;;;;;;16.85;11.90;;;3.10;99.90;;;;;;5085920;28;20042;-65
2023/03/01 10:11:25;;;;;;;18.00;12.40;;;3.20;99.90;;;;;;5085345;28;20509;-65
2023/03/01 10:14:02;;;;;;;17.77;11.98;;;3.30;99.90;;;;;;5063129;28;20549;-65
2023/03/01 10:16:50;;;;;;;16.45;11.63;;;3.50;99.90;;;;;;5081911;28;20512;-65
2023/03/01 10:19:43;;;;;;;16.80;12.88;;;;;;;;;;5085119;28;20081;-65
2023/03/01 10:22:29;;;;;;;18.73;13.63;;;;;;;;;;5062634;28;20053;-65
2023/03/01 10:24:59;;;;;;;22.38;15.68;;;3.60;99.90;;;;;;5085653;28;20074;-65
2023/03/01 10:27:40;;;;;;;20.02;13.43;;;4.00;99.90;;;;;;5085785;28;20060;-65
2023/03/01 10:30:29;;;;;;;19.83;14.48;;;4.10;99.90;;;;;;5082531;28;20086;-65
2023/03/01 10:32:57;;;;;;;20.65;15.35;;;4.20;99.90;;;;;;5080191;28;20510;-65
2023/03/01 10:35:27;;;;;;;23.60;14.45;;;;;;;;;;5079067;28;20032;-65
2023/03/01 10:38:03;;;;;;;21.90;13.85;;;;;;;;;;5085260;28;20055;-65
2023/03/01 10:40:29;;;;;;;19.58;13.10;;;;;;;;;;5060945;28;20165;-65
2023/03/01 10:42:57;;;;;;;23.15;15.85;;;;;;;;;;5087456;28;20488;-65
2023/03/01 10:45:29;;;;;;;25.67;16.13;;;;;;;;;;5089092;28;20036;-65
2023/03/01 10:48:04;;;;;;;20.42;13.18;;;;;;;;;;5087533;28;20040;-65
2023/03/01 10:50:31;;;;;;;21.55;15.18;;;;;;;;;;5084859;28;20044;-65
2023/03/01 10:53:01;;;;;;;28.58;16.70;;;;;;;;;;5088103;28;20050;-65
2023/03/01 10:55:31;;;;;;;22.77;15.38;;;;;;;;;;5093149;28;20036;-65
2023/03/01 10:58:09;;;;;;;22.63;15.55;;;;;;;;;;5087204;28;20043;-65
2023/03/01 11:00:46;;;;;;;28.23;15.30;;;;;;;;;;5068876;28;20059;-65
2023/03/01 11:03:16;;;;;;;24.13;14.98;;;4.40;99.90;;;;;;5085266;28;20124;-65
2023/03/01 11:06:16;;;;;;;22.83;15.48;;;5.50;99.90;;;;;;5093950;28;20048;-65
2023/03/01 11:08:44;;;;;;;24.05;16.27;;;5.50;99.90;;;;;;5076663;28;20048;-66
2023/03/01 11:11:12;;;;;;;22.60;15.68;;;5.60;99.90;;;;;;5086727;28;20055;-65
2023/03/01 11:14:15;;;;;;;23.20;14.85;;;5.70;99.90;;;;;;5087872;28;20048;-65
2023/03/01 11:16:44;;;;;;;27.25;15.25;;;5.80;99.90;;;;;;5085238;28;20187;-65
2023/03/01 11:19:09;;;;;;;19.08;13.90;;;5.90;99.90;;;;;;5089395;28;20548;-65
2023/03/01 11:21:42;;;;;;;19.05;13.52;;;;;;;;;;5092137;28;20061;-63
2023/03/01 11:24:13;;;;;;;23.38;13.77;;;;;;;;;;5088257;28;20032;-63
2023/03/01 11:26:41;;;;;;;18.67;12.85;;;;;;;;;;5086991;28;20042;-62
2023/03/01 11:29:13;;;;;;;15.93;12.43;;;;;;;;;;5088226;28;20479;-63
2023/03/01 11:31:41;;;;;;;19.25;14.40;;;5.90;99.90;;;;;;5079914;28;20053;-63
2023/03/01 11:34:17;;;;;;;19.33;13.00;;;6.30;99.90;;;;;;5087125;28;20036;-63
2023/03/01 11:36:58;;;;;;;17.98;12.10;;;6.40;99.90;;;;;;5086649;28;20079;-63
2023/03/01 11:39:37;;;;;;;22.13;12.93;;;6.40;99.90;;;;;;5069320;28;20559;-62
2023/03/01 11:42:31;;;;;;;16.73;12.50;;;6.50;99.90;;;;;;5088011;28;21683;-63
2023/03/01 11:45:01;;;;;;;17.05;11.63;;;6.50;99.90;;;;;;5089766;28;20032;-62
2023/03/01 11:47:47;;;;;;;18.02;13.77;;;;;;;;;;5087737;28;20489;-63
2023/03/01 11:50:20;;;;;;;19.70;12.85;;;;;;;;;;5050898;28;20067;-63
2023/03/01 11:53:14;;;;;;;17.35;12.85;;;;;;;;;;5085994;28;20032;-63
2023/03/01 11:56:00;;;;;;;18.13;13.70;;;;;;;;;;5086436;28;20032;-63
2023/03/01 11:58:29;;;;;;;18.40;12.68;;;;;;;;;;5083924;28;20146;-63
2023/03/01 12:01:01;;;;;;;16.73;12.45;;;;;;;;;;5090060;28;20043;-63
2023/03/01 12:03:34;;;;;;;17.20;12.13;;;6.60;99.90;;;;;;5086716;28;20028;-63
2023/03/01 12:06:37;;;;;;;23.07;12.47;;;7.00;99.90;;;;;;5081588;28;20401;-63
2023/03/01 12:09:40;;;;;;;17.90;13.07;;;7.00;99.90;;;;;;5082379;28;20044;-63
2023/03/01 12:12:29;;;;;;;18.05;10.82;;;7.10;99.90;;;;;;5087768;28;20051;-63
2023/03/01 12:15:17;;;;;;;17.90;13.32;;;7.10;99.90;;;;;;5077934;28;20052;-63
2023/03/01 12:17:45;;;;;;;18.05;12.82;;;7.20;99.90;;;;;;5068843;28;20565;-63
2023/03/01 12:20:20;;;;;;;17.98;11.98;;;7.20;99.90;;;;;;5068230;28;20182;-63
2023/03/01 12:22:46;;;;;;;16.52;12.20;;;7.20;99.90;;;;;;5077735;28;20062;-63
2023/03/01 12:25:15;;;;;;;17.98;12.13;;;7.20;99.90;;;;;;5085987;28;20155;-63
2023/03/01 12:27:47;;;;;;;15.68;10.80;;;7.30;99.90;;;;;;5093360;28;20046;-63
2023/03/01 12:30:28;;;;;;;17.05;12.80;;;7.40;99.90;;;;;;5093767;28;20517;-63
2023/03/01 12:33:15;;;;;;;19.48;13.18;;;7.40;99.90;;;;;;5096671;28;20072;-63
2023/03/01 12:36:08;;;;;;;14.63;12.32;;;7.50;99.90;;;;;;5093684;28;20465;-63
2023/03/01 12:39:11;;;;;;;15.20;11.52;;;7.50;99.90;;;;;;5098355;28;20047;-63
2023/03/01 12:41:47;;;;;;;15.95;11.52;;;7.60;99.90;;;;;;5070203;28;20036;-63
2023/03/01 12:44:51;;;;;;;17.48;12.88;;;7.70;99.90;;;;;;5089259;28;20081;-64
2023/03/01 12:47:44;;;;;;;17.80;10.70;;;7.80;99.90;;;;;;5090509;28;20694;-63
2023/03/01 12:50:17;;;;;;;13.90;10.50;;;;;;;;;;5095766;28;20829;-63
2023/03/01 12:52:43;;;;;;;;;;;;;;;;;;5094169;28;20097;-63
2023/03/01 12:55:25;;;;;;;12.65;10.30;;;7.90;99.90;;;;;;5085794;28;19920;-62
2023/03/01 12:58:01;;;;;;;16.30;10.85;;;8.00;99.90;;;;;;5087489;28;20043;-63
2023/03/01 13:00:36;;;;;;;15.60;11.15;;;8.00;99.90;;;;;;5093085;28;20085;-63
2023/03/01 13:03:29;;;;;;;15.00;11.65;;;8.10;99.90;;;;;;5092380;28;20686;-63
2023/03/01 13:06:01;;;;;;;14.20;11.18;;;;;;;;;;5067647;28;20047;-63
2023/03/01 13:08:32;;;;;;;16.00;10.82;;;;;;;;;;5093762;28;20031;-63
2023/03/01 13:11:04;;;;;;;16.23;10.90;;;;;;;;;;5092586;28;20497;-63
2023/03/01 13:13:30;;;;;;;13.20;10.63;;;;;;;;;;5094499;28;20032;-63
2023/03/01 13:15:56;;;;;;;16.38;10.63;;;;;;;;;;5085147;28;20042;-62
2023/03/01 13:18:24;;;;;;;16.75;11.45;;;;;;;;;;5090691;28;20469;-63
2023/03/01 13:20:51;;;;;;;16.77;11.10;;;;;;;;;;5094969;28;20035;-63
2023/03/01 13:23:23;;;;;;;19.17;11.00;;;;;;;;;;5088687;28;20615;-63
2023/03/01 13:26:12;;;;;;;16.02;11.85;;;8.00;99.90;;;;;;5091536;28;20036;-63
2023/03/01 13:28:42;;;;;;;16.08;11.70;;;8.30;99.90;;;;;;5086199;28;20044;-63
2023/03/01 13:31:15;;;;;;;14.07;10.38;;;8.30;99.90;;;;;;5040157;28;20071;-63
2023/03/01 13:33:51;;;;;;;15.18;10.82;;;8.40;99.90;;;;;;5087908;28;20047;-63
2023/03/01 13:36:30;;;;;;;17.45;11.13;;;8.40;99.90;;;;;;5089928;28;20043;-63
2023/03/01 13:39:00;;;;;;;17.05;11.45;;;8.40;99.90;;;;;;5089079;28;20123;-63
2023/03/01 13:41:43;;;;;;;39.13;12.82;;;8.50;99.90;;;;;;5085642;28;20122;-63
2023/03/01 13:44:25;;;;;;;15.68;10.50;;;8.50;99.90;;;;;;5082835;28;20032;-63
2023/03/01 13:47:14;;;;;;;15.00;10.85;;;8.40;99.90;;;;;;5086951;28;20047;-63
2023/03/01 13:49:48;;;;;;;12.25;9.77;;;8.50;99.90;;;;;;5082107;28;20044;-63
2023/03/01 13:52:48;;;;;;;15.82;10.45;;;8.50;99.90;;;;;;5068441;28;20444;-63
2023/03/01 13:55:13;;;;;;;15.00;9.93;;;8.50;99.90;;;;;;5085157;28;20052;-63
2023/03/01 13:57:41;;;;;;;15.65;10.98;;;8.50;99.90;;;;;;5086131;28;20051;-63
2023/03/01 14:00:24;;;;;;;13.38;10.27;;;8.50;99.90;;;;;;5089229;28;20052;-63
2023/03/01 14:03:15;;;;;;;15.43;10.63;;;8.50;99.90;;;;;;5087453;28;20115;-63
2023/03/01 14:06:02;;;;;;;17.75;10.82;;;8.50;99.90;;;;;;5086442;28;20044;-63
2023/03/01 14:08:30;;;;;;;16.85;11.00;;;8.50;99.90;;;;;;5084693;28;20048;-63
2023/03/01 14:11:02;;;;;;;12.90;11.13;;;8.50;99.90;;;;;;5073926;28;20522;-63
2023/03/01 14:14:01;;;;;;;15.02;10.95;;;8.50;99.90;;;;;;5075895;28;20048;-63
2023/03/01 14:16:43;;;;;;;15.35;10.48;;;8.50;99.90;;;;;;5048878;28;20083;-63
2023/03/01 14:19:25;;;;;;;15.73;10.93;;;8.40;99.90;;;;;;5061886;28;20037;-63
2023/03/01 14:22:29;;;;;;;14.70;10.63;;;8.40;99.90;;;;;;5061635;28;20074;-63
2023/03/01 14:25:01;;;;;;;13.82;10.35;;;8.40;99.90;;;;;;5069047;28;20482;-63